Time;durP1;ratioP1;P1;durP2;ratioP2;P2;SDS_P1;SDS_P2;PMS_P1;PMS_P2;Temp;Humidity;BMP_temperature;BMP_pressure;BME280_temperature;BME280_humidity;BME280_pressure;Samples;Min_cycle;Max_cycle;Signal;HPM_P1;HPM_P2
2023/05/28 00:00:52;;;;;;;20.93;11.27;;;;;;;13.76;87.55;100274.25;4914198;28;20083;-64
2023/05/28 00:03:23;;;;;;;23.23;10.57;;;;;;;13.63;88.13;100228.25;4913787;28;20279;-63
2023/05/28 00:05:56;;;;;;;29.38;12.68;;;;;;;13.88;87.88;100256.38;4906090;28;20123;-62
2023/05/28 00:08:27;;;;;;;27.95;12.70;;;;;;;13.84;88.05;100257.41;4893617;28;20119;-61
2023/05/28 00:10:59;;;;;;;25.23;12.30;;;;;;;13.68;88.94;100265.72;4904417;28;20468;-62
2023/05/28 00:13:31;;;;;;;30.13;13.35;;;;;;;13.66;90.13;100267.53;4902987;28;20090;-62
2023/05/28 00:16:01;;;;;;;25.55;12.85;;;;;;;13.68;90.76;100243.84;4902511;28;20485;-62
2023/05/28 00:18:32;;;;;;;23.40;12.55;;;;;;;13.67;91.32;100236.88;4901057;28;20052;-62
2023/05/28 00:21:12;;;;;;;27.67;12.53;;;;;;;13.79;91.35;100253.13;4900230;28;20055;-62
2023/05/28 00:23:42;;;;;;;27.60;12.25;;;;;;;13.77;91.20;100262.81;4911251;28;20626;-61
2023/05/28 00:26:13;;;;;;;28.35;12.65;;;;;;;13.71;91.68;100260.38;4905933;28;20439;-62
2023/05/28 00:28:43;;;;;;;26.90;13.35;;;;;;;13.77;91.84;100239.19;4906168;28;20048;-62
2023/05/28 00:31:14;;;;;;;30.13;14.15;;;;;;;13.84;92.34;100223.25;4906183;28;20484;-62
2023/05/28 00:33:44;;;;;;;23.67;13.25;;;;;;;13.90;92.67;100228.31;4906482;28;20064;-61
2023/05/28 00:36:17;;;;;;;30.58;13.55;;;;;;;13.85;93.53;100209.19;4906434;28;20432;-61
2023/05/28 00:38:48;;;;;;;27.92;14.23;;;;;;;13.93;93.58;100233.50;4896448;28;20420;-62
2023/05/28 00:41:22;;;;;;;26.38;13.32;;;;;;;14.01;94.01;100232.31;4906377;28;20054;-61
2023/05/28 00:43:53;;;;;;;29.10;13.65;;;;;;;14.01;94.02;100226.22;4906093;28;20076;-62
2023/05/28 00:46:25;;;;;;;24.50;13.67;;;;;;;14.04;94.10;100228.75;4906095;28;20048;-62
2023/05/28 00:48:55;;;;;;;21.93;12.73;;;;;;;14.04;94.21;100223.50;4905193;28;20349;-60
2023/05/28 00:51:28;;;;;;;25.83;15.52;;;;;;;14.18;94.71;100212.56;4912596;28;20317;-62
2023/05/28 00:53:59;;;;;;;26.50;14.37;;;;;;;14.26;94.75;100193.91;4906130;28;20130;-61
2023/05/28 00:56:31;;;;;;;28.17;12.87;;;;;;;13.79;94.28;100089.44;4906358;28;20871;-62
2023/05/28 00:59:02;;;;;;;29.20;13.13;;;;;;;14.41;94.30;100175.84;4904625;28;20368;-62
2023/05/28 01:01:36;;;;;;;25.20;12.60;;;;;;;14.46;93.68;100180.97;4907633;28;20420;-62
2023/05/28 01:04:07;;;;;;;26.33;12.03;;;;;;;14.43;93.44;100202.09;4904159;28;20276;-62
2023/05/28 01:06:39;;;;;;;17.30;8.70;;;;;;;14.37;92.90;100213.66;4910464;28;20803;-63
2023/05/28 01:09:10;;;;;;;16.27;8.30;;;;;;;14.34;92.40;100228.69;4904866;28;20364;-61
2023/05/28 01:11:44;;;;;;;16.15;8.40;;;;;;;14.22;91.85;100230.78;4905668;28;20302;-62
2023/05/28 01:14:15;;;;;;;13.80;7.70;;;;;;;14.12;92.10;100229.34;4905577;28;20048;-62
2023/05/28 01:16:46;;;;;;;18.57;8.10;;;;;;;14.01;92.68;100231.47;4904014;28;20279;-61
2023/05/28 01:19:19;;;;;;;16.67;7.70;;;;;;;13.93;92.92;100249.25;4908354;28;20715;-62
2023/05/28 01:21:58;;;;;;;15.05;8.82;;;;;;;13.88;93.59;100256.38;4905982;28;20297;-63
2023/05/28 01:24:31;;;;;;;14.73;8.88;;;;;;;13.75;93.69;100248.91;4895462;28;20134;-63
2023/05/28 01:27:03;;;;;;;17.03;7.00;;;;;;;13.70;94.06;100221.88;4903867;28;20135;-62
2023/05/28 01:29:35;;;;;;;15.63;7.88;;;;;;;13.71;94.43;100202.63;4904867;28;20322;-61
2023/05/28 01:32:05;;;;;;;14.13;8.18;;;;;;;13.84;95.32;100181.22;4905736;28;25054;-63
2023/05/28 01:34:37;;;;;;;13.88;8.05;;;;;;;14.03;95.17;100177.13;4903143;28;20065;-63
2023/05/28 01:37:11;;;;;;;17.13;7.57;;;;;;;14.08;94.17;100169.94;4904802;28;20049;-60
2023/05/28 01:39:46;;;;;;;15.00;7.50;;;;;;;14.03;94.18;100166.63;4904125;28;20048;-64
2023/05/28 01:42:17;;;;;;;13.93;7.37;;;;;;;14.09;94.35;100161.16;4899673;28;20049;-62
2023/05/28 01:44:48;;;;;;;14.93;8.30;;;;;;;14.12;94.58;100161.03;4905144;28;20286;-64
2023/05/28 01:47:19;;;;;;;15.40;8.93;;;;;;;14.21;94.97;100160.75;4904368;28;20282;-64
2023/05/28 01:49:51;;;;;;;12.32;7.40;;;;;;;14.29;95.82;100162.28;4904793;28;20083;-62
2023/05/28 01:52:21;;;;;;;21.13;11.10;;;;;;;14.34;94.96;100160.34;4905433;28;20237;-63
2023/05/28 01:54:53;;;;;;;13.90;7.65;;;;;;;14.31;95.24;100160.44;4904840;28;20287;-64
2023/05/28 01:57:24;;;;;;;12.00;8.43;;;;;;;14.26;95.13;100157.13;4902336;28;20467;-62
2023/05/28 01:59:54;;;;;;;13.37;8.07;;;;;;;14.11;94.88;100155.84;4905050;28;20381;-63
2023/05/28 02:02:27;;;;;;;14.27;8.60;;;;;;;14.05;94.70;100149.00;4902869;28;20297;-63
2023/05/28 02:04:58;;;;;;;13.57;8.13;;;;;;;14.14;95.04;100138.22;4894627;28;20279;-62
2023/05/28 02:07:28;;;;;;;10.87;7.67;;;;;;;14.15;95.53;100111.03;4904391;28;20291;-64
2023/05/28 02:10:00;;;;;;;11.90;7.93;;;;;;;14.19;95.82;100119.66;4906119;28;20282;-63
2023/05/28 02:12:31;;;;;;;14.93;7.17;;;;;;;14.23;95.42;100137.91;4901870;28;20772;-61
2023/05/28 02:15:01;;;;;;;16.35;8.63;;;;;;;14.24;95.74;100123.84;4904454;28;20837;-62
2023/05/28 02:17:32;;;;;;;14.63;8.60;;;;;;;13.80;95.78;100054.41;4904187;28;20067;-64
2023/05/28 02:20:04;;;;;;;15.50;8.87;;;;;;;14.30;95.80;100127.19;4904250;28;20056;-63
2023/05/28 02:22:36;;;;;;;11.50;7.30;;;;;;;14.30;95.47;100111.41;4904475;28;20647;-63
2023/05/28 02:25:10;;;;;;;15.50;8.57;;;;;;;14.38;95.04;100109.41;4894461;28;20319;-65
2023/05/28 02:27:40;;;;;;;13.23;7.93;;;;;;;14.32;94.96;100093.81;4903758;28;20370;-63
2023/05/28 02:30:13;;;;;;;15.47;8.50;;;;;;;14.24;95.38;100087.06;4904486;28;20056;-63
2023/05/28 02:32:44;;;;;;;21.70;12.45;;;;;;;14.26;95.55;100083.53;4904207;28;20401;-65
2023/05/28 02:35:15;;;;;;;17.20;10.03;;;;;;;14.28;95.98;100073.81;4903927;28;20056;-64
2023/05/28 02:37:45;;;;;;;14.60;9.27;;;;;;;14.26;95.73;100083.53;4905376;28;20378;-65
2023/05/28 02:40:18;;;;;;;16.37;8.53;;;;;;;14.31;96.36;100071.09;4906203;28;20352;-65
2023/05/28 02:42:48;;;;;;;14.97;8.57;;;;;;;14.46;96.97;100058.25;4908060;28;20635;-64
2023/05/28 02:45:19;;;;;;;16.37;9.40;;;;;;;14.54;96.60;100047.50;4906628;28;20271;-63
2023/05/28 02:47:49;;;;;;;14.30;9.07;;;;;;;14.19;96.35;99968.09;4907666;28;20743;-66
2023/05/28 02:50:20;;;;;;;14.10;7.90;;;;;;;14.76;96.09;100041.47;4907389;28;20279;-64
2023/05/28 02:52:51;;;;;;;12.13;8.17;;;;;;;14.83;95.07;100028.03;4907322;28;20104;-65
2023/05/28 02:55:24;;;;;;;17.40;9.10;;;;;;;14.91;94.79;100025.09;4905802;28;20286;-63
2023/05/28 02:57:54;;;;;;;15.93;9.77;;;;;;;14.87;94.38;100015.59;4907116;28;20283;-65
2023/05/28 03:00:25;;;;;;;14.37;8.30;;;;;;;14.87;94.01;100012.97;4907454;28;20275;-63
2023/05/28 03:02:55;;;;;;;14.40;9.13;;;;;;;14.96;93.90;100011.78;4906073;28;21028;-63
2023/05/28 03:05:27;;;;;;;14.13;8.63;;;;;;;14.91;93.27;100004.06;4911736;28;20280;-63
2023/05/28 03:07:57;;;;;;;14.60;8.43;;;;;;;14.73;92.35;99991.63;4907818;28;20343;-64
2023/05/28 03:10:29;;;;;;;21.13;9.40;;;;;;;14.63;93.26;99997.22;4907490;28;20374;-64
2023/05/28 03:13:00;;;;;;;15.20;8.47;;;;;;;14.61;93.94;99985.88;4907329;28;20298;-64
2023/05/28 03:15:33;;;;;;;12.23;8.30;;;;;;;14.64;94.31;99980.50;4907049;28;20291;-63
2023/05/28 03:18:05;;;;;;;16.93;8.63;;;;;;;14.63;93.91;99973.53;4906722;28;20286;-64
2023/05/28 03:20:36;;;;;;;14.32;9.23;;;;;;;14.63;93.80;99970.91;4903702;28;20279;-62
2023/05/28 03:23:07;;;;;;;13.90;8.67;;;;;;;14.61;93.75;99964.84;4909165;28;20096;-63
2023/05/28 03:25:39;;;;;;;16.23;8.93;;;;;;;14.47;93.73;99951.31;4908117;28;20280;-63
2023/05/28 03:28:09;;;;;;;16.27;9.53;;;;;;;14.31;94.27;99930.03;4907603;28;20786;-64
2023/05/28 03:30:40;;;;;;;19.13;11.07;;;;;;;14.46;94.50;99960.13;4907241;28;20374;-63
2023/05/28 03:33:10;;;;;;;19.83;11.37;;;;;;;14.45;95.09;99964.53;4906521;28;20341;-64
2023/05/28 03:35:41;;;;;;;17.90;12.10;;;;;;;14.41;95.28;99968.19;4907308;28;20409;-64
2023/05/28 03:38:12;;;;;;;19.63;12.87;;;;;;;14.31;95.33;99947.56;4907045;28;20374;-63
2023/05/28 03:40:44;;;;;;;20.67;12.20;;;;;;;14.37;95.28;99963.09;4906917;28;20323;-64
2023/05/28 03:43:14;;;;;;;18.40;9.50;;;;;;;14.48;95.62;99970.56;4905463;28;20283;-63
2023/05/28 03:45:45;;;;;;;14.43;9.27;;;;;;;14.49;95.61;99965.28;4905451;28;20378;-63
2023/05/28 03:48:15;;;;;;;14.67;9.33;;;;;;;14.50;95.61;99961.72;4906664;28;20263;-63
2023/05/28 03:50:46;;;;;;;16.33;9.47;;;;;;;14.51;95.60;99971.34;4901427;28;20975;-63
2023/05/28 03:53:16;;;;;;;13.67;8.77;;;;;;;14.48;95.57;99973.22;4909600;28;20359;-61
2023/05/28 03:55:51;;;;;;;14.82;7.55;;;;;;;14.38;95.19;99970.09;4908469;28;20292;-61
2023/05/28 03:58:22;;;;;;;15.73;7.40;;;;;;;14.31;94.53;99971.22;4907510;28;20056;-61
2023/05/28 04:00:53;;;;;;;13.43;7.47;;;;;;;14.21;94.88;99976.78;4905475;28;20630;-62
2023/05/28 04:03:23;;;;;;;19.00;8.53;;;;;;;14.11;95.26;99985.94;4903550;28;20650;-62
2023/05/28 04:05:54;;;;;;;12.53;6.97;;;;;;;13.95;95.88;99975.09;4904440;28;20336;-62
2023/05/28 04:08:25;;;;;;;15.37;8.27;;;;;;;13.80;96.98;99971.25;4906183;28;20275;-61
2023/05/28 04:10:57;;;;;;;14.75;7.72;;;;;;;13.75;97.74;99967.03;4903872;28;21285;-61
2023/05/28 04:13:28;;;;;;;11.90;7.25;;;;;;;13.78;98.08;99967.81;4894393;28;20052;-59
2023/05/28 04:15:59;;;;;;;12.05;6.75;;;;;;;13.79;97.94;99953.75;4907360;28;20048;-60
2023/05/28 04:18:29;;;;;;;15.38;8.55;;;;;;;13.81;98.51;99951.94;4906377;28;20544;-63
2023/05/28 04:21:00;;;;;;;12.30;7.10;;;;;;;13.88;99.07;99935.94;4906948;28;20048;-62
2023/05/28 04:23:31;;;;;;;11.23;7.53;;;;;;;13.87;98.76;99934.25;4904635;28;20142;-58
2023/05/28 04:26:03;;;;;;;10.33;6.63;;;;;;;13.85;99.12;99922.94;4905755;28;20068;-59
2023/05/28 04:28:34;;;;;;;12.43;7.00;;;;;;;13.70;98.89;99912.03;4905762;28;20869;-61
2023/05/28 04:31:05;;;;;;;16.30;9.00;;;;;;;13.58;99.71;99912.50;4905073;28;20829;-62
2023/05/28 04:33:39;;;;;;;14.23;9.95;;;;;;;13.62;100.00;99908.84;4899021;28;20443;-61
2023/05/28 04:36:13;;;;;;;15.20;9.03;;;;;;;13.66;100.00;99899.09;4902898;28;20441;-61
2023/05/28 04:38:43;;;;;;;12.23;8.10;;;;;;;13.66;100.00;99884.22;4905490;28;21112;-62
2023/05/28 04:41:15;;;;;;;22.00;10.68;;;;;;;13.61;100.00;99880.03;4905280;28;20044;-61
2023/05/28 04:43:46;;;;;;;31.15;18.85;;;;;;;13.60;100.00;99889.66;4946373;28;20063;-61
2023/05/28 04:46:17;;;;;;;14.90;9.13;;;;;;;13.62;100.00;99893.09;4905628;28;20052;-63
2023/05/28 04:48:47;;;;;;;14.77;7.78;;;;;;;13.62;100.00;99893.09;4906050;28;20071;-63
2023/05/28 04:51:18;;;;;;;13.63;8.52;;;;;;;13.60;100.00;99889.66;4905863;28;20458;-62
2023/05/28 04:53:49;;;;;;;16.17;9.68;;;;;;;13.63;100.00;99909.69;4905082;28;20497;-62
2023/05/28 04:56:21;;;;;;;15.13;9.15;;;;;;;13.65;100.00;99918.38;4905305;28;20060;-63
2023/05/28 04:58:52;;;;;;;17.95;9.27;;;;;;;13.38;100.00;99874.66;4935586;28;20137;-60
2023/05/28 05:01:24;;;;;;;13.50;7.85;;;;;;;13.61;100.00;99890.53;5040082;28;20390;-61
2023/05/28 05:03:55;;;;;;;11.65;8.32;;;;;;;13.57;100.00;99847.75;5025857;28;20057;-61
2023/05/28 05:06:25;;;;;;;11.38;8.23;;;;;;;13.55;100.00;99831.22;5038167;28;20044;-60
2023/05/28 05:08:56;;;;;;;15.80;7.90;;;;;;;13.58;100.00;99828.50;5029118;28;20060;-62
2023/05/28 05:11:28;;;;;;;14.05;8.35;;;;;;;13.70;100.00;99837.69;5039996;28;20049;-60
2023/05/28 05:13:59;;;;;;;15.13;7.95;;;;;;;13.48;100.00;99800.84;5029924;28;20159;-63
2023/05/28 05:16:29;;;;;;;15.45;8.93;;;;;;;13.58;100.00;99828.50;5029089;28;20698;-63
2023/05/28 05:19:00;;;;;;;14.05;8.32;;;;;;;13.36;100.00;99792.50;5038955;28;20044;-63
2023/05/28 05:21:31;;;;;;;14.88;8.50;;;;;;;13.65;100.00;99802.84;5027716;28;20048;-61
2023/05/28 05:24:02;;;;;;;12.45;7.97;;;;;;;13.73;100.00;99806.09;5039505;28;20405;-60
2023/05/28 05:26:34;;;;;;;13.57;8.38;;;;;;;13.81;100.00;99802.25;5028795;28;20064;-62
2023/05/28 05:29:04;;;;;;;16.20;7.47;;;;;;;13.88;100.00;99794.13;5039665;28;20080;-62
2023/05/28 05:31:35;;;;;;;13.07;7.32;;;;;;;13.91;100.00;99789.63;5029359;28;20492;-61
2023/05/28 05:34:05;;;;;;;13.88;7.35;;;;;;;13.98;100.00;99771.88;5039973;28;20873;-61
2023/05/28 05:36:36;;;;;;;12.43;7.35;;;;;;;14.02;100.00;99765.56;5029179;28;20469;-62
2023/05/28 05:39:06;;;;;;;11.80;6.60;;;;;;;14.10;100.00;99768.75;5039631;28;20063;-60
2023/05/28 05:41:39;;;;;;;10.50;6.40;;;;;;;14.14;100.00;99759.84;5029165;28;20080;-63
2023/05/28 05:44:09;;;;;;;12.07;7.40;;;;;;;14.06;100.00;99772.44;5039468;28;20063;-61
2023/05/28 05:46:40;;;;;;;12.57;7.53;;;;;;;13.98;100.00;99775.34;5029249;28;20100;-60
2023/05/28 05:49:11;;;;;;;15.07;8.18;;;;;;;14.00;100.00;99783.16;5040135;28;20147;-61
2023/05/28 05:51:41;;;;;;;15.77;8.45;;;;;;;13.97;99.70;99772.78;5028902;28;20060;-61
2023/05/28 05:54:12;;;;;;;16.70;8.98;;;;;;;13.97;100.00;99788.53;5039076;28;20487;-64
2023/05/28 05:56:44;;;;;;;16.02;9.75;;;;;;;13.88;100.00;99783.63;5028630;28;20143;-61
2023/05/28 05:59:15;;;;;;;15.25;8.30;;;;;;;13.73;100.00;99780.69;5039536;28;20067;-63
2023/05/28 06:01:45;;;;;;;17.42;9.13;;;;;;;13.75;100.00;99789.38;5029034;28;20079;-63
2023/05/28 06:04:16;;;;;;;25.48;10.57;;;;;;;13.59;100.00;99783.78;5040186;28;20059;-61
2023/05/28 06:06:47;;;;;;;15.35;8.70;;;;;;;13.49;100.00;99786.81;5028940;28;20652;-63
2023/05/28 06:09:18;;;;;;;13.02;7.95;;;;;;;13.45;100.00;99788.69;5039137;28;20066;-61
2023/05/28 06:11:50;;;;;;;15.90;8.18;;;;;;;13.34;100.00;99789.06;5028926;28;20064;-63
2023/05/28 06:14:21;;;;;;;17.15;9.27;;;;;;;13.24;100.00;99794.66;5042622;28;20771;-64
2023/05/28 06:16:51;;;;;;;17.08;8.45;;;;;;;13.09;100.00;99790.81;5031085;28;20051;-62
2023/05/28 06:19:22;;;;;;;15.40;8.70;;;;;;;12.93;100.00;99767.72;5041454;28;20143;-61
2023/05/28 06:21:53;;;;;;;14.07;9.05;;;;;;;12.80;100.00;99728.84;5032115;28;20149;-60
2023/05/28 06:24:24;;;;;;;11.73;8.38;;;;;;;13.27;100.00;99798.06;5043106;28;20836;-60
2023/05/28 06:26:56;;;;;;;16.83;8.88;;;;;;;13.38;100.00;99805.59;5033018;28;20589;-64
2023/05/28 06:29:26;;;;;;;16.67;8.80;;;;;;;13.43;100.00;99813.25;5043145;28;20060;-60
2023/05/28 06:31:57;;;;;;;13.65;9.15;;;;;;;13.37;100.00;99825.69;5032719;28;20047;-62
2023/05/28 06:34:27;;;;;;;25.33;11.77;;;;;;;13.37;100.00;99833.56;5039804;28;20048;-60
2023/05/28 06:37:01;;;;;;;19.98;10.23;;;;;;;13.26;100.00;99833.06;5043813;28;20068;-60
2023/05/28 06:39:31;;;;;;;19.80;8.18;;;;;;;13.05;100.00;99849.50;5032119;28;20060;-58
2023/05/28 06:42:05;;;;;;;18.70;8.88;;;;;;;12.85;100.00;99843.16;5042949;28;20075;-58
2023/05/28 06:44:36;;;;;;;10.30;6.30;;;;;;;12.72;100.00;99836.59;5031822;28;20044;-56
2023/05/28 06:47:07;;;;;;;11.73;6.65;;;;;;;12.70;100.00;99818.31;5042385;28;20488;-60
2023/05/28 06:49:37;;;;;;;13.50;7.85;;;;;;;12.79;100.00;99796.16;5032441;28;20113;-60
2023/05/28 06:52:08;;;;;;;12.65;7.38;;;;;;;13.04;100.00;99811.09;5042633;28;20066;-60
2023/05/28 06:54:39;;;;;;;12.07;7.10;;;;;;;13.20;100.00;99830.63;5031890;28;20122;-61
2023/05/28 06:57:11;;;;;;;11.00;6.88;;;;;;;13.31;100.00;99810.19;5042683;28;20071;-61
2023/05/28 06:59:41;;;;;;;10.07;6.40;;;;;;;13.53;100.00;99788.44;5031878;28;20152;-61
2023/05/28 07:02:12;;;;;;;10.05;6.80;;;;;;;13.57;100.00;99790.00;5042099;28;20151;-61
2023/05/28 07:04:43;;;;;;;9.52;6.32;;;;;;;13.41;100.00;99800.22;5031711;28;20091;-60
2023/05/28 07:07:13;;;;;;;10.20;6.22;;;;;;;13.18;100.00;99782.63;5042350;28;20070;-61
2023/05/28 07:09:51;;;;;;;12.07;7.25;;;;;;;13.34;100.00;99807.44;5034136;28;20503;-62
2023/05/28 07:12:32;;;;;;;12.82;7.43;;;;;;;13.31;100.00;99820.66;5033333;28;20147;-60
2023/05/28 07:15:03;;;;;;;10.85;6.35;;;;;;;13.33;100.00;99808.34;5041460;28;20073;-63
2023/05/28 07:17:34;;;;;;;11.82;7.60;;;;;;;13.40;100.00;99818.63;5031541;28;20048;-62
2023/05/28 07:20:07;;;;;;;14.60;8.30;;;;;;;13.42;100.00;99801.06;5041873;28;20048;-64
2023/05/28 07:22:38;;;;;;;15.48;6.97;;;;;;;13.34;100.00;99799.56;5031369;28;20084;-64
2023/05/28 07:25:09;;;;;;;9.32;6.50;;;;;;;13.23;100.00;99787.69;5040936;28;20048;-63
2023/05/28 07:27:41;;;;;;;9.77;6.85;;;;;;;13.38;100.00;99803.81;5031063;28;20074;-63
2023/05/28 07:30:12;;;;;;;28.98;10.30;;;;;;;13.40;100.00;99810.75;5041828;28;20048;-64
2023/05/28 07:32:43;;;;;;;13.77;7.88;;;;;;;13.40;100.00;99802.88;5030725;28;20056;-63
2023/05/28 07:35:14;;;;;;;10.45;6.78;;;;;;;13.41;100.00;99809.88;5041277;28;20067;-64
2023/05/28 07:37:44;;;;;;;13.00;6.38;;;;;;;13.32;100.00;99806.63;5028070;28;20057;-57
2023/05/28 07:40:15;;;;;;;14.35;7.15;;;;;;;13.26;100.00;99811.22;5041545;28;20143;-62
2023/05/28 07:42:48;;;;;;;17.92;9.00;;;;;;;13.05;100.00;99789.19;5030364;28;20547;-63
2023/05/28 07:45:19;;;;;;;11.77;7.45;;;;;;;13.12;100.00;99819.53;5040666;28;20066;-61
2023/05/28 07:47:49;;;;;;;12.48;7.68;;;;;;;12.87;100.00;99828.22;5030717;28;20135;-63
2023/05/28 07:50:22;;;;;;;16.58;7.25;;;;;;;12.49;100.00;99808.50;5040781;28;20055;-62
2023/05/28 07:52:53;;;;;;;15.98;8.45;;;;;;;12.52;100.00;99835.44;5030615;28;20059;-60
2023/05/28 07:55:26;;;;;;;16.08;7.00;;;;;;;12.33;100.00;99818.63;5040873;28;20159;-59
2023/05/28 07:57:59;;;;;;;17.05;7.38;;;;;;;12.18;100.00;99798.09;5030707;28;20060;-60
2023/05/28 08:00:30;;;;;;;18.17;7.68;;;;;;;12.24;100.00;99829.34;5031166;28;20060;-62
2023/05/28 08:03:01;;;;;;;15.57;8.15;;;;;;;12.18;100.00;99832.16;5041232;28;20094;-61
2023/05/28 08:05:32;;;;;;;15.00;7.72;;;;;;;12.11;100.00;99818.41;5030425;28;20052;-58
2023/05/28 08:08:03;;;;;;;16.75;8.23;;;;;;;11.78;100.00;99767.81;5040709;28;20155;-61
2023/05/28 08:10:36;;;;;;;16.85;8.18;;;;;;;12.07;100.00;99825.47;5030070;28;20068;-61
2023/05/28 08:13:10;;;;;;;16.15;8.10;;;;;;;11.97;100.00;99817.94;5041086;28;20520;-60
2023/05/28 08:15:41;;;;;;;14.77;8.35;;;;;;;11.89;100.00;99822.53;5029557;28;20405;-61
2023/05/28 08:18:11;;;;;;;22.35;8.73;;;;;;;11.83;100.00;99818.28;5039357;28;20048;-64
2023/05/28 08:20:42;;;;;;;15.75;8.05;;;;;;;11.75;100.00;99820.28;5030353;28;20114;-60
2023/05/28 08:23:13;;;;;;;17.80;7.75;;;;;;;11.75;100.00;99809.81;5039761;28;20048;-62
2023/05/28 08:25:44;;;;;;;18.15;7.65;;;;;;;11.65;100.00;99820.53;5029513;28;20048;-63
2023/05/28 08:28:20;;;;;;;12.00;6.93;;;;;;;11.54;100.00;99801.66;5040862;28;20114;-62
2023/05/28 08:30:51;;;;;;;13.82;7.55;;;;;;;11.40;100.00;99803.78;5030154;28;20185;-60
2023/05/28 08:33:22;;;;;;;11.48;6.63;;;;;;;11.44;100.00;99806.28;5040138;28;20147;-63
2023/05/28 08:35:53;;;;;;;15.07;6.45;;;;;;;11.43;100.00;99803.69;5028887;28;20052;-61
2023/05/28 08:38:24;;;;;;;14.80;7.00;;;;;;;11.39;100.00;99807.31;5040164;28;20131;-63
2023/05/28 08:40:57;;;;;;;16.67;6.80;;;;;;;11.29;100.00;99798.00;5029086;28;20155;-62
2023/05/28 08:43:30;;;;;;;14.48;6.95;;;;;;;11.31;100.00;99804.06;5034619;28;20048;-62
2023/05/28 08:46:00;;;;;;;13.60;6.97;;;;;;;11.33;100.00;99810.06;5040586;28;20048;-63
2023/05/28 08:48:34;;;;;;;10.25;5.75;;;;;;;11.23;100.00;99812.97;5030139;28;20056;-62
2023/05/28 08:51:06;;;;;;;15.75;7.20;;;;;;;11.23;100.00;99812.97;5040125;28;20052;-64
2023/05/28 08:53:42;;;;;;;12.38;6.63;;;;;;;11.22;100.00;99820.84;5029837;28;20148;-63
2023/05/28 08:56:13;;;;;;;13.65;6.25;;;;;;;11.21;100.00;99821.75;5039842;28;20053;-61
2023/05/28 08:58:47;;;;;;;16.15;5.88;;;;;;;10.96;100.00;99769.22;5029323;28;20079;-63
2023/05/28 09:01:19;;;;;;;12.73;5.95;;;;;;;11.25;100.00;99820.75;5039468;28;20476;-64
2023/05/28 09:03:50;;;;;;;11.63;6.43;;;;;;;11.04;100.00;99785.56;5027628;28;20122;-60
2023/05/28 09:06:24;;;;;;;9.38;5.88;;;;;;;11.27;100.00;99823.34;5039237;28;20171;-63
2023/05/28 09:12:14;;;;;;;12.15;4.93;;;;;;;11.18;100.00;99840.09;5029005;28;20499;-63
2023/05/28 09:15:06;;;;;;;11.32;5.10;;;;;;;11.11;100.00;99833.34;5029168;28;20064;-64
2023/05/28 09:17:39;;;;;;;9.40;4.47;;;;;;;11.12;100.00;99840.28;5028923;28;20096;-62
2023/05/28 09:20:16;;;;;;;8.13;4.93;;;;;;;11.09;100.00;99830.75;5039915;28;20581;-61
2023/05/28 09:23:00;;;;;;;11.00;4.75;;;;;;;11.13;100.00;99828.91;5029465;28;20055;-64
2023/05/28 09:25:50;;;;;;;8.25;4.57;;;;;;;11.10;100.00;99822.00;5029150;28;20385;-61
2023/05/28 09:28:28;;;;;;;7.25;4.50;;;;;;;11.06;100.00;99829.94;5039820;28;20060;-60
2023/05/28 09:31:10;;;;;;;9.23;4.95;;;;;;;11.12;100.00;99830.66;5029882;28;20469;-60
2023/05/28 09:33:49;;;;;;;9.40;4.70;;;;;;;11.10;100.00;99827.22;5029833;28;20056;-60
2023/05/28 09:36:25;;;;;;;11.88;5.18;;;;;;;11.02;100.00;99822.19;5039656;28;20044;-61
2023/05/28 09:38:59;;;;;;;12.77;4.82;;;;;;;11.03;100.00;99825.66;5029085;28;20456;-63
2023/05/28 09:41:33;;;;;;;9.38;5.13;;;;;;;11.03;100.00;99825.66;5029040;28;20137;-63
2023/05/28 09:44:06;;;;;;;8.65;4.85;;;;;;;11.14;100.00;99828.88;5039785;28;20059;-62
2023/05/28 09:46:38;;;;;;;10.30;4.43;;;;;;;11.06;100.00;99825.59;5029014;28;20508;-64
2023/05/28 09:49:12;;;;;;;11.30;4.40;;;;;;;10.97;100.00;99820.59;5040017;28;20563;-59
2023/05/28 09:51:48;;;;;;;8.68;4.55;;;;;;;10.98;100.00;99811.84;5028963;28;20052;-61
2023/05/28 09:54:20;;;;;;;10.15;4.40;;;;;;;11.00;100.00;99810.06;5039272;28;20574;-59
2023/05/28 09:56:54;;;;;;;8.82;4.30;;;;;;;10.88;100.00;99810.38;5026981;28;20068;-61
2023/05/28 09:59:28;;;;;;;10.23;5.13;;;;;;;10.54;100.00;99774.63;5038995;28;20048;-61
2023/05/28 10:02:17;;;;;;;6.35;4.20;;;;;;;10.75;100.00;99831.56;5019917;28;20102;-62
2023/05/28 10:04:57;;;;;;;14.20;4.95;;;;;;;10.65;100.00;99837.91;5029378;28;20460;-60
2023/05/28 10:07:58;;;;;;;10.98;5.13;;;;;;;10.55;100.00;99833.81;5031973;28;20536;-60
2023/05/28 10:10:46;;;;;;;9.00;4.65;;;;;;;10.47;100.00;99840.97;5004228;28;20150;-60
2023/05/28 10:13:18;;;;;;;10.38;5.10;;;;;;;10.35;100.00;99842.94;5039202;28;20668;-61
2023/05/28 10:15:52;;;;;;;9.98;5.28;;;;;;;10.25;100.00;99841.41;5028608;28;20779;-63
2023/05/28 10:18:28;;;;;;;10.35;5.53;;;;;;;10.20;100.00;99838.03;5039550;28;20057;-62
2023/05/28 10:21:03;;;;;;;9.85;5.45;;;;;;;10.12;100.00;99840.81;5029242;28;20060;-60
2023/05/28 10:23:38;;;;;;;13.73;5.78;;;;;;;10.11;100.00;99843.47;5027198;28;20075;-63
2023/05/28 10:26:14;;;;;;;15.02;6.53;;;;;;;10.02;100.00;99841.03;5039805;28;20947;-62
2023/05/28 10:28:46;;;;;;;16.40;6.80;;;;;;;10.01;100.00;99847.13;5028549;28;20098;-60
2023/05/28 10:31:23;;;;;;;10.23;6.40;;;;;;;9.98;100.00;99848.06;5038599;28;20053;-63
2023/05/28 10:33:58;;;;;;;16.63;6.68;;;;;;;10.02;100.00;99848.88;5027877;28;20052;-62
2023/05/28 10:36:52;;;;;;;18.48;6.15;;;;;;;9.87;100.00;99843.06;5028301;28;20128;-63
2023/05/28 10:39:43;;;;;;;14.40;6.80;;;;;;;9.78;100.00;99830.19;5026972;28;20052;-63
2023/05/28 10:42:16;;;;;;;13.25;5.68;;;;;;;9.75;100.00;99817.22;5036046;28;20169;-60
2023/05/28 10:45:09;;;;;;;14.02;6.82;;;;;;;9.72;100.00;99830.31;5027057;28;20038;-62
2023/05/28 10:47:54;;;;;;;19.90;6.40;;;;;;;9.65;100.00;99836.56;5027303;28;20144;-64
2023/05/28 10:50:32;;;;;;;37.05;6.68;;;;;;;9.55;100.00;99837.63;5028781;28;20445;-62
2023/05/28 10:53:07;;;;;;;30.10;6.63;;;;;;;9.41;100.00;99828.31;5027628;28;20052;-61
2023/05/28 10:55:53;;;;;;;28.98;7.20;;;;;;;9.38;100.00;99830.09;5027893;28;20143;-62
2023/05/28 10:58:35;;;;;;;28.67;8.15;;;;;;;9.29;100.00;99820.72;5038239;28;20056;-60
2023/05/28 11:01:20;;;;;;;40.92;8.07;;;;;;;9.27;100.00;99832.91;5031236;28;20491;-62
2023/05/28 11:03:56;;;;;;;64.10;7.50;;;;;;;9.24;100.00;99843.41;5031891;28;20045;-63
2023/05/28 11:06:30;;;;;;;67.40;8.75;;;;;;;8.80;100.00;99774.66;5039568;28;20055;-59
2023/05/28 11:09:02;;;;;;;94.60;10.60;;;;;;;9.14;100.00;99829.66;5041696;28;20091;-58
2023/05/28 11:11:34;;;;;;;36.03;9.25;;;;;;;9.18;100.00;99827.84;5030892;28;20407;-60
2023/05/28 11:14:06;;;;;;;42.40;9.32;;;;;;;9.25;100.00;99839.91;5042097;28;20060;-61
2023/05/28 11:16:37;;;;;;;54.13;9.15;;;;;;;9.23;100.00;99831.25;5030986;28;20263;-61
2023/05/28 11:19:27;;;;;;;26.08;9.85;;;;;;;9.31;100.00;99828.50;5041946;28;20064;-59
2023/05/28 11:22:02;;;;;;;98.60;10.73;;;;;;;9.32;100.00;99831.09;5030511;28;20055;-62
2023/05/28 11:24:33;;;;;;;115.07;9.43;;;;;;;9.32;100.00;99831.09;5026732;28;20062;-62
2023/05/28 11:27:04;;;;;;;129.82;11.50;;;;;;;9.26;100.00;99825.97;5040125;28;20486;-64
2023/05/28 11:29:38;;;;;;;59.72;10.20;;;;;;;9.33;100.00;99811.94;5031363;28;20287;-63
2023/05/28 11:32:09;;;;;;;113.28;12.05;;;;;;;9.34;100.00;99803.25;5041580;28;20056;-65
2023/05/28 11:34:40;;;;;;;55.78;11.05;;;;;;;9.38;100.00;99815.31;5031070;28;20419;-64
2023/05/28 11:37:17;;;;;;;74.10;10.45;;;;;;;9.39;100.00;99813.59;5041711;28;20053;-64
2023/05/28 11:39:52;;;;;;;85.43;12.55;;;;;;;9.37;100.00;99818.81;5029988;28;20053;-62
2023/05/28 11:42:28;;;;;;;68.65;11.35;;;;;;;9.24;100.00;99801.69;5041634;28;20468;-59
2023/05/28 11:45:02;;;;;;;29.02;10.40;;;;;;;9.36;100.00;99811.91;5030992;28;20481;-63